sensor_id;sensor_type;location;lat;lon;timestamp;P1;durP1;ratioP1;P2;durP2;ratioP2
22250;SDS011;59348;52.158;5.588;2022-07-23T00:01:27;6.18;;;3.03;;
22250;SDS011;59348;52.158;5.588;2022-07-23T00:03:54;5.70;;;3.10;;
22250;SDS011;59348;52.158;5.588;2022-07-23T00:06:21;4.05;;;3.20;;
22250;SDS011;59348;52.158;5.588;2022-07-23T00:08:50;5.80;;;3.58;;
22250;SDS011;59348;52.158;5.588;2022-07-23T00:11:17;3.92;;;3.25;;
22250;SDS011;59348;52.158;5.588;2022-07-23T00:13:47;5.38;;;3.60;;
22250;SDS011;59348;52.158;5.588;2022-07-23T00:16:14;4.45;;;3.40;;
22250;SDS011;59348;52.158;5.588;2022-07-23T00:18:41;3.60;;;3.30;;
22250;SDS011;59348;52.158;5.588;2022-07-23T00:21:08;5.38;;;3.35;;
22250;SDS011;59348;52.158;5.588;2022-07-23T00:23:36;5.43;;;3.75;;
22250;SDS011;59348;52.158;5.588;2022-07-23T00:26:05;6.38;;;3.38;;
22250;SDS011;59348;52.158;5.588;2022-07-23T00:28:33;5.15;;;3.58;;
22250;SDS011;59348;52.158;5.588;2022-07-23T00:31:00;5.82;;;3.15;;
22250;SDS011;59348;52.158;5.588;2022-07-23T00:33:27;4.38;;;3.33;;
22250;SDS011;59348;52.158;5.588;2022-07-23T00:35:56;5.85;;;3.60;;
22250;SDS011;59348;52.158;5.588;2022-07-23T00:38:23;3.75;;;3.20;;
22250;SDS011;59348;52.158;5.588;2022-07-23T00:40:50;5.28;;;3.53;;
22250;SDS011;59348;52.158;5.588;2022-07-23T00:43:20;5.82;;;3.00;;
22250;SDS011;59348;52.158;5.588;2022-07-23T00:45:48;5.45;;;4.00;;
22250;SDS011;59348;52.158;5.588;2022-07-23T00:48:16;4.28;;;3.67;;
22250;SDS011;59348;52.158;5.588;2022-07-23T00:50:43;6.25;;;3.50;;
22250;SDS011;59348;52.158;5.588;2022-07-23T00:53:10;6.60;;;3.40;;
22250;SDS011;59348;52.158;5.588;2022-07-23T00:55:38;7.20;;;3.00;;
22250;SDS011;59348;52.158;5.588;2022-07-23T00:58:05;4.28;;;3.08;;
22250;SDS011;59348;52.158;5.588;2022-07-23T01:00:34;6.15;;;4.20;;
22250;SDS011;59348;52.158;5.588;2022-07-23T01:03:01;6.55;;;3.83;;
22250;SDS011;59348;52.158;5.588;2022-07-23T01:05:29;5.68;;;3.30;;
22250;SDS011;59348;52.158;5.588;2022-07-23T01:07:56;3.72;;;2.80;;
22250;SDS011;59348;52.158;5.588;2022-07-23T01:10:23;3.65;;;3.22;;
22250;SDS011;59348;52.158;5.588;2022-07-23T01:12:59;6.82;;;3.75;;
22250;SDS011;59348;52.158;5.588;2022-07-23T01:15:27;3.50;;;3.20;;
22250;SDS011;59348;52.158;5.588;2022-07-23T01:17:56;6.60;;;3.40;;
22250;SDS011;59348;52.158;5.588;2022-07-23T01:20:23;3.40;;;3.10;;
22250;SDS011;59348;52.158;5.588;2022-07-23T01:22:52;3.92;;;3.20;;
22250;SDS011;59348;52.158;5.588;2022-07-23T01:25:19;5.05;;;3.05;;
22250;SDS011;59348;52.158;5.588;2022-07-23T01:27:47;4.85;;;3.25;;
22250;SDS011;59348;52.158;5.588;2022-07-23T01:30:14;4.20;;;3.25;;
22250;SDS011;59348;52.158;5.588;2022-07-23T01:32:42;6.53;;;3.40;;
22250;SDS011;59348;52.158;5.588;2022-07-23T01:35:09;4.28;;;3.35;;
22250;SDS011;59348;52.158;5.588;2022-07-23T01:37:37;3.83;;;3.25;;
22250;SDS011;59348;52.158;5.588;2022-07-23T01:40:06;5.00;;;3.42;;
22250;SDS011;59348;52.158;5.588;2022-07-23T01:42:33;5.63;;;3.67;;
22250;SDS011;59348;52.158;5.588;2022-07-23T01:45:01;5.13;;;3.65;;
22250;SDS011;59348;52.158;5.588;2022-07-23T01:47:28;5.47;;;3.90;;
22250;SDS011;59348;52.158;5.588;2022-07-23T01:49:56;6.57;;;3.88;;
22250;SDS011;59348;52.158;5.588;2022-07-23T01:52:23;7.78;;;3.83;;
22250;SDS011;59348;52.158;5.588;2022-07-23T01:54:50;4.28;;;3.47;;
22250;SDS011;59348;52.158;5.588;2022-07-23T01:57:19;5.55;;;4.30;;
22250;SDS011;59348;52.158;5.588;2022-07-23T01:59:46;6.05;;;4.05;;
22250;SDS011;59348;52.158;5.588;2022-07-23T02:02:13;6.43;;;4.57;;
22250;SDS011;59348;52.158;5.588;2022-07-23T02:04:41;5.07;;;4.00;;
22250;SDS011;59348;52.158;5.588;2022-07-23T02:07:08;4.90;;;3.28;;
22250;SDS011;59348;52.158;5.588;2022-07-23T02:09:35;3.58;;;2.80;;
22250;SDS011;59348;52.158;5.588;2022-07-23T02:12:03;3.38;;;2.67;;
22250;SDS011;59348;52.158;5.588;2022-07-23T02:14:31;3.25;;;2.95;;
22250;SDS011;59348;52.158;5.588;2022-07-23T02:16:59;3.50;;;3.20;;
22250;SDS011;59348;52.158;5.588;2022-07-23T02:19:26;7.20;;;3.97;;
22250;SDS011;59348;52.158;5.588;2022-07-23T02:21:54;7.88;;;3.47;;
22250;SDS011;59348;52.158;5.588;2022-07-23T02:24:21;4.43;;;3.60;;
22250;SDS011;59348;52.158;5.588;2022-07-23T02:26:48;5.00;;;3.55;;
22250;SDS011;59348;52.158;5.588;2022-07-23T02:29:16;3.67;;;3.28;;
22250;SDS011;59348;52.158;5.588;2022-07-23T02:31:44;5.47;;;3.25;;
22250;SDS011;59348;52.158;5.588;2022-07-23T02:34:12;5.97;;;3.50;;
22250;SDS011;59348;52.158;5.588;2022-07-23T02:36:39;3.95;;;3.30;;
22250;SDS011;59348;52.158;5.588;2022-07-23T02:39:06;5.07;;;3.15;;
22250;SDS011;59348;52.158;5.588;2022-07-23T02:41:34;5.25;;;3.05;;
22250;SDS011;59348;52.158;5.588;2022-07-23T02:44:01;3.20;;;2.60;;
22250;SDS011;59348;52.158;5.588;2022-07-23T02:46:28;4.32;;;2.70;;
22250;SDS011;59348;52.158;5.588;2022-07-23T02:48:57;5.15;;;3.80;;
22250;SDS011;59348;52.158;5.588;2022-07-23T02:51:24;9.02;;;4.72;;
22250;SDS011;59348;52.158;5.588;2022-07-23T02:53:51;7.25;;;4.38;;
22250;SDS011;59348;52.158;5.588;2022-07-23T02:56:19;4.65;;;3.47;;
22250;SDS011;59348;52.158;5.588;2022-07-23T02:58:46;4.28;;;3.67;;
22250;SDS011;59348;52.158;5.588;2022-07-23T03:01:13;4.82;;;3.00;;
22250;SDS011;59348;52.158;5.588;2022-07-23T03:03:41;5.28;;;3.22;;
22250;SDS011;59348;52.158;5.588;2022-07-23T03:06:09;5.60;;;3.17;;
22250;SDS011;59348;52.158;5.588;2022-07-23T03:08:37;9.93;;;3.83;;
22250;SDS011;59348;52.158;5.588;2022-07-23T03:11:04;4.65;;;3.80;;
22250;SDS011;59348;52.158;5.588;2022-07-23T03:13:35;5.60;;;4.40;;
22250;SDS011;59348;52.158;5.588;2022-07-23T03:16:03;5.05;;;4.15;;
22250;SDS011;59348;52.158;5.588;2022-07-23T03:18:30;5.20;;;4.32;;
22250;SDS011;59348;52.158;5.588;2022-07-23T03:20:58;5.13;;;3.60;;
22250;SDS011;59348;52.158;5.588;2022-07-23T03:23:26;6.10;;;4.10;;
22250;SDS011;59348;52.158;5.588;2022-07-23T03:25:54;4.65;;;4.00;;
22250;SDS011;59348;52.158;5.588;2022-07-23T03:28:21;6.47;;;3.67;;
22250;SDS011;59348;52.158;5.588;2022-07-23T03:30:48;4.60;;;4.20;;
22250;SDS011;59348;52.158;5.588;2022-07-23T03:33:16;11.15;;;4.30;;
22250;SDS011;59348;52.158;5.588;2022-07-23T03:35:44;5.88;;;4.55;;
22250;SDS011;59348;52.158;5.588;2022-07-23T03:38:11;5.00;;;4.50;;
22250;SDS011;59348;52.158;5.588;2022-07-23T03:40:40;4.97;;;4.22;;
22250;SDS011;59348;52.158;5.588;2022-07-23T03:43:07;6.63;;;4.63;;
22250;SDS011;59348;52.158;5.588;2022-07-23T03:45:35;7.45;;;4.57;;
22250;SDS011;59348;52.158;5.588;2022-07-23T03:48:02;10.13;;;5.00;;
22250;SDS011;59348;52.158;5.588;2022-07-23T03:50:29;6.63;;;4.25;;
22250;SDS011;59348;52.158;5.588;2022-07-23T03:52:56;4.85;;;4.35;;
22250;SDS011;59348;52.158;5.588;2022-07-23T03:55:24;5.65;;;4.32;;
22250;SDS011;59348;52.158;5.588;2022-07-23T03:57:53;5.82;;;4.50;;
22250;SDS011;59348;52.158;5.588;2022-07-23T04:00:20;6.18;;;4.85;;
22250;SDS011;59348;52.158;5.588;2022-07-23T04:02:47;7.45;;;4.55;;
22250;SDS011;59348;52.158;5.588;2022-07-23T04:05:15;4.30;;;3.90;;
22250;SDS011;59348;52.158;5.588;2022-07-23T04:07:42;7.18;;;4.25;;
22250;SDS011;59348;52.158;5.588;2022-07-23T04:10:10;4.72;;;4.05;;
22250;SDS011;59348;52.158;5.588;2022-07-23T04:12:37;9.02;;;4.32;;
22250;SDS011;59348;52.158;5.588;2022-07-23T04:15:07;5.18;;;3.65;;
22250;SDS011;59348;52.158;5.588;2022-07-23T04:17:35;3.45;;;3.15;;
22250;SDS011;59348;52.158;5.588;2022-07-23T04:20:02;4.95;;;3.95;;
22250;SDS011;59348;52.158;5.588;2022-07-23T04:22:30;12.85;;;4.72;;
22250;SDS011;59348;52.158;5.588;2022-07-23T04:24:57;7.68;;;4.07;;
22250;SDS011;59348;52.158;5.588;2022-07-23T04:27:24;6.13;;;4.50;;
22250;SDS011;59348;52.158;5.588;2022-07-23T04:29:52;5.90;;;3.22;;
22250;SDS011;59348;52.158;5.588;2022-07-23T04:32:20;7.40;;;3.45;;
22250;SDS011;59348;52.158;5.588;2022-07-23T04:34:47;6.32;;;3.90;;
22250;SDS011;59348;52.158;5.588;2022-07-23T04:37:15;5.00;;;3.80;;
22250;SDS011;59348;52.158;5.588;2022-07-23T04:39:42;9.98;;;3.80;;
22250;SDS011;59348;52.158;5.588;2022-07-23T04:42:09;6.35;;;3.70;;
22250;SDS011;59348;52.158;5.588;2022-07-23T04:44:37;7.38;;;4.30;;
22250;SDS011;59348;52.158;5.588;2022-07-23T04:47:04;8.73;;;4.53;;
22250;SDS011;59348;52.158;5.588;2022-07-23T04:49:33;7.32;;;4.22;;
22250;SDS011;59348;52.158;5.588;2022-07-23T04:52:00;5.68;;;4.18;;
22250;SDS011;59348;52.158;5.588;2022-07-23T04:54:27;6.75;;;4.35;;
22250;SDS011;59348;52.158;5.588;2022-07-23T04:56:55;6.28;;;4.13;;
22250;SDS011;59348;52.158;5.588;2022-07-23T04:59:22;7.20;;;4.35;;
22250;SDS011;59348;52.158;5.588;2022-07-23T05:01:49;7.07;;;4.70;;
22250;SDS011;59348;52.158;5.588;2022-07-23T05:04:16;11.48;;;4.78;;
22250;SDS011;59348;52.158;5.588;2022-07-23T05:06:45;9.77;;;4.60;;
22250;SDS011;59348;52.158;5.588;2022-07-23T05:09:12;8.57;;;4.90;;
22250;SDS011;59348;52.158;5.588;2022-07-23T05:11:40;8.73;;;5.00;;
22250;SDS011;59348;52.158;5.588;2022-07-23T05:14:07;8.52;;;5.05;;
22250;SDS011;59348;52.158;5.588;2022-07-23T05:16:37;10.60;;;5.13;;
22250;SDS011;59348;52.158;5.588;2022-07-23T05:19:04;8.05;;;5.35;;
22250;SDS011;59348;52.158;5.588;2022-07-23T05:21:31;8.68;;;5.10;;
22250;SDS011;59348;52.158;5.588;2022-07-23T05:24:00;8.18;;;6.25;;
22250;SDS011;59348;52.158;5.588;2022-07-23T05:26:28;8.77;;;5.90;;
22250;SDS011;59348;52.158;5.588;2022-07-23T05:28:55;10.10;;;6.28;;
22250;SDS011;59348;52.158;5.588;2022-07-23T05:31:22;7.47;;;5.47;;
22250;SDS011;59348;52.158;5.588;2022-07-23T05:33:49;7.72;;;5.57;;
22250;SDS011;59348;52.158;5.588;2022-07-23T05:36:17;8.23;;;6.15;;
22250;SDS011;59348;52.158;5.588;2022-07-23T05:38:44;9.52;;;5.97;;
22250;SDS011;59348;52.158;5.588;2022-07-23T05:41:13;10.30;;;5.60;;
22250;SDS011;59348;52.158;5.588;2022-07-23T05:43:40;7.13;;;6.20;;
22250;SDS011;59348;52.158;5.588;2022-07-23T05:46:07;7.50;;;5.90;;
22250;SDS011;59348;52.158;5.588;2022-07-23T05:48:34;8.90;;;6.25;;
22250;SDS011;59348;52.158;5.588;2022-07-23T05:51:02;8.70;;;5.75;;
22250;SDS011;59348;52.158;5.588;2022-07-23T05:53:31;10.77;;;6.40;;
22250;SDS011;59348;52.158;5.588;2022-07-23T05:55:59;8.73;;;6.00;;
22250;SDS011;59348;52.158;5.588;2022-07-23T05:58:27;8.57;;;6.15;;
22250;SDS011;59348;52.158;5.588;2022-07-23T06:00:55;8.20;;;5.45;;
22250;SDS011;59348;52.158;5.588;2022-07-23T06:03:22;7.70;;;4.60;;
22250;SDS011;59348;52.158;5.588;2022-07-23T06:05:49;6.88;;;4.55;;
22250;SDS011;59348;52.158;5.588;2022-07-23T06:08:16;5.93;;;4.50;;
22250;SDS011;59348;52.158;5.588;2022-07-23T06:10:44;10.82;;;4.68;;
22250;SDS011;59348;52.158;5.588;2022-07-23T06:13:11;7.38;;;5.03;;
22250;SDS011;59348;52.158;5.588;2022-07-23T06:15:39;8.57;;;4.70;;
22250;SDS011;59348;52.158;5.588;2022-07-23T06:18:07;7.40;;;4.70;;
22250;SDS011;59348;52.158;5.588;2022-07-23T06:20:34;5.78;;;4.20;;
22250;SDS011;59348;52.158;5.588;2022-07-23T06:23:01;8.07;;;4.18;;
22250;SDS011;59348;52.158;5.588;2022-07-23T06:25:29;4.05;;;3.20;;
22250;SDS011;59348;52.158;5.588;2022-07-23T06:27:56;7.40;;;3.20;;
22250;SDS011;59348;52.158;5.588;2022-07-23T06:30:23;5.82;;;3.42;;
22250;SDS011;59348;52.158;5.588;2022-07-23T06:32:52;6.32;;;3.72;;
22250;SDS011;59348;52.158;5.588;2022-07-23T06:35:19;9.05;;;5.20;;
22250;SDS011;59348;52.158;5.588;2022-07-23T06:37:46;11.45;;;5.82;;
22250;SDS011;59348;52.158;5.588;2022-07-23T06:40:14;11.55;;;4.78;;
22250;SDS011;59348;52.158;5.588;2022-07-23T06:42:41;9.23;;;4.38;;
22250;SDS011;59348;52.158;5.588;2022-07-23T06:45:08;9.93;;;4.40;;
22250;SDS011;59348;52.158;5.588;2022-07-23T06:47:36;6.57;;;4.15;;
22250;SDS011;59348;52.158;5.588;2022-07-23T06:50:05;6.05;;;4.22;;
22250;SDS011;59348;52.158;5.588;2022-07-23T06:52:32;6.15;;;4.28;;
22250;SDS011;59348;52.158;5.588;2022-07-23T06:54:59;7.07;;;4.40;;
22250;SDS011;59348;52.158;5.588;2022-07-23T06:57:27;5.88;;;4.10;;
22250;SDS011;59348;52.158;5.588;2022-07-23T06:59:54;5.18;;;3.85;;
22250;SDS011;59348;52.158;5.588;2022-07-23T07:02:21;7.35;;;4.53;;
22250;SDS011;59348;52.158;5.588;2022-07-23T07:04:49;7.05;;;4.30;;
22250;SDS011;59348;52.158;5.588;2022-07-23T07:07:17;7.22;;;4.45;;
22250;SDS011;59348;52.158;5.588;2022-07-23T07:09:45;6.25;;;4.25;;
22250;SDS011;59348;52.158;5.588;2022-07-23T07:12:12;5.18;;;3.83;;
22250;SDS011;59348;52.158;5.588;2022-07-23T07:14:39;7.07;;;4.20;;
22250;SDS011;59348;52.158;5.588;2022-07-23T07:17:07;5.78;;;4.03;;
22250;SDS011;59348;52.158;5.588;2022-07-23T07:19:35;5.57;;;3.88;;
22250;SDS011;59348;52.158;5.588;2022-07-23T07:22:03;6.07;;;3.83;;
22250;SDS011;59348;52.158;5.588;2022-07-23T07:24:31;6.20;;;3.90;;
22250;SDS011;59348;52.158;5.588;2022-07-23T07:26:59;5.90;;;3.75;;
22250;SDS011;59348;52.158;5.588;2022-07-23T07:29:26;8.25;;;4.22;;
22250;SDS011;59348;52.158;5.588;2022-07-23T07:31:53;6.72;;;3.60;;
22250;SDS011;59348;52.158;5.588;2022-07-23T07:34:21;5.22;;;3.00;;
22250;SDS011;59348;52.158;5.588;2022-07-23T07:36:48;5.80;;;2.88;;
22250;SDS011;59348;52.158;5.588;2022-07-23T07:39:16;6.35;;;2.55;;
22250;SDS011;59348;52.158;5.588;2022-07-23T07:41:44;5.35;;;3.20;;
22250;SDS011;59348;52.158;5.588;2022-07-23T07:44:11;4.85;;;3.05;;
22250;SDS011;59348;52.158;5.588;2022-07-23T07:46:39;4.97;;;3.50;;
22250;SDS011;59348;52.158;5.588;2022-07-23T07:49:06;5.60;;;3.58;;
22250;SDS011;59348;52.158;5.588;2022-07-23T07:51:33;7.95;;;3.80;;
22250;SDS011;59348;52.158;5.588;2022-07-23T07:54:01;5.88;;;3.60;;
22250;SDS011;59348;52.158;5.588;2022-07-23T07:56:28;5.50;;;3.78;;
22250;SDS011;59348;52.158;5.588;2022-07-23T07:58:57;3.83;;;3.40;;
22250;SDS011;59348;52.158;5.588;2022-07-23T08:01:25;3.97;;;3.55;;
22250;SDS011;59348;52.158;5.588;2022-07-23T08:03:52;7.72;;;3.65;;
22250;SDS011;59348;52.158;5.588;2022-07-23T08:06:20;6.38;;;4.57;;
22250;SDS011;59348;52.158;5.588;2022-07-23T08:08:47;7.13;;;3.90;;
22250;SDS011;59348;52.158;5.588;2022-07-23T08:11:14;5.30;;;3.72;;
22250;SDS011;59348;52.158;5.588;2022-07-23T08:13:42;5.53;;;4.10;;
22250;SDS011;59348;52.158;5.588;2022-07-23T08:16:11;7.85;;;3.97;;
22250;SDS011;59348;52.158;5.588;2022-07-23T08:18:38;7.05;;;3.75;;
22250;SDS011;59348;52.158;5.588;2022-07-23T08:21:06;6.15;;;2.63;;
22250;SDS011;59348;52.158;5.588;2022-07-23T08:23:33;3.95;;;2.45;;
22250;SDS011;59348;52.158;5.588;2022-07-23T08:26:00;7.03;;;2.40;;
22250;SDS011;59348;52.158;5.588;2022-07-23T08:28:28;4.80;;;3.30;;
22250;SDS011;59348;52.158;5.588;2022-07-23T08:30:58;6.43;;;2.88;;
22250;SDS011;59348;52.158;5.588;2022-07-23T08:33:27;5.13;;;3.38;;
22250;SDS011;59348;52.158;5.588;2022-07-23T08:35:54;3.70;;;3.00;;
22250;SDS011;59348;52.158;5.588;2022-07-23T08:38:22;3.95;;;2.90;;
22250;SDS011;59348;52.158;5.588;2022-07-23T08:40:50;6.18;;;2.58;;
22250;SDS011;59348;52.158;5.588;2022-07-23T08:43:18;3.72;;;2.95;;
22250;SDS011;59348;52.158;5.588;2022-07-23T08:45:47;5.35;;;3.00;;
22250;SDS011;59348;52.158;5.588;2022-07-23T08:48:16;5.57;;;3.20;;
22250;SDS011;59348;52.158;5.588;2022-07-23T08:50:45;4.95;;;2.97;;
22250;SDS011;59348;52.158;5.588;2022-07-23T08:53:13;6.35;;;2.42;;
22250;SDS011;59348;52.158;5.588;2022-07-23T08:55:43;5.65;;;2.60;;
22250;SDS011;59348;52.158;5.588;2022-07-23T08:58:10;4.43;;;2.40;;
22250;SDS011;59348;52.158;5.588;2022-07-23T09:00:38;3.28;;;2.38;;
22250;SDS011;59348;52.158;5.588;2022-07-23T09:03:05;4.53;;;2.65;;
22250;SDS011;59348;52.158;5.588;2022-07-23T09:05:32;3.83;;;2.55;;
22250;SDS011;59348;52.158;5.588;2022-07-23T09:08:09;4.78;;;2.50;;
22250;SDS011;59348;52.158;5.588;2022-07-23T09:10:45;3.10;;;2.33;;
22250;SDS011;59348;52.158;5.588;2022-07-23T09:15:55;5.22;;;2.20;;
22250;SDS011;59348;52.158;5.588;2022-07-23T09:18:30;4.72;;;2.40;;
22250;SDS011;59348;52.158;5.588;2022-07-23T09:21:05;7.53;;;2.53;;
22250;SDS011;59348;52.158;5.588;2022-07-23T09:23:43;3.55;;;2.80;;
22250;SDS011;59348;52.158;5.588;2022-07-23T09:26:18;3.22;;;2.50;;
22250;SDS011;59348;52.158;5.588;2022-07-23T09:28:50;7.28;;;2.80;;
22250;SDS011;59348;52.158;5.588;2022-07-23T09:31:17;3.53;;;2.60;;
22250;SDS011;59348;52.158;5.588;2022-07-23T09:33:45;6.72;;;2.80;;
22250;SDS011;59348;52.158;5.588;2022-07-23T09:36:12;5.78;;;2.78;;
22250;SDS011;59348;52.158;5.588;2022-07-23T09:38:48;3.67;;;2.60;;
22250;SDS011;59348;52.158;5.588;2022-07-23T09:41:16;5.07;;;2.58;;
22250;SDS011;59348;52.158;5.588;2022-07-23T09:43:43;2.72;;;2.30;;
22250;SDS011;59348;52.158;5.588;2022-07-23T09:48:53;4.18;;;2.75;;
22250;SDS011;59348;52.158;5.588;2022-07-23T09:51:22;4.70;;;2.58;;
22250;SDS011;59348;52.158;5.588;2022-07-23T09:53:55;4.53;;;2.50;;
22250;SDS011;59348;52.158;5.588;2022-07-23T09:56:22;4.28;;;2.33;;
22250;SDS011;59348;52.158;5.588;2022-07-23T09:58:50;2.45;;;1.85;;
22250;SDS011;59348;52.158;5.588;2022-07-23T10:01:26;3.20;;;2.40;;
22250;SDS011;59348;52.158;5.588;2022-07-23T10:03:54;4.07;;;2.35;;
22250;SDS011;59348;52.158;5.588;2022-07-23T10:06:21;4.50;;;1.90;;
22250;SDS011;59348;52.158;5.588;2022-07-23T10:08:49;4.97;;;1.92;;
22250;SDS011;59348;52.158;5.588;2022-07-23T10:11:19;3.97;;;2.22;;
22250;SDS011;59348;52.158;5.588;2022-07-23T10:13:46;2.13;;;1.80;;
22250;SDS011;59348;52.158;5.588;2022-07-23T10:16:17;5.30;;;1.95;;
22250;SDS011;59348;52.158;5.588;2022-07-23T10:18:45;4.13;;;2.03;;
22250;SDS011;59348;52.158;5.588;2022-07-23T10:21:16;3.72;;;2.05;;
22250;SDS011;59348;52.158;5.588;2022-07-23T10:23:45;4.45;;;1.90;;
22250;SDS011;59348;52.158;5.588;2022-07-23T10:26:16;5.47;;;2.30;;
22250;SDS011;59348;52.158;5.588;2022-07-23T10:28:53;3.75;;;1.83;;
22250;SDS011;59348;52.158;5.588;2022-07-23T10:31:26;3.88;;;1.80;;
22250;SDS011;59348;52.158;5.588;2022-07-23T10:33:56;4.28;;;2.00;;
22250;SDS011;59348;52.158;5.588;2022-07-23T10:36:30;3.05;;;1.75;;
22250;SDS011;59348;52.158;5.588;2022-07-23T10:39:03;3.58;;;1.90;;
22250;SDS011;59348;52.158;5.588;2022-07-23T10:41:32;3.13;;;1.80;;
22250;SDS011;59348;52.158;5.588;2022-07-23T10:44:06;4.55;;;1.95;;
22250;SDS011;59348;52.158;5.588;2022-07-23T10:46:34;3.92;;;1.73;;
22250;SDS011;59348;52.158;5.588;2022-07-23T10:54:30;2.10;;;1.90;;
22250;SDS011;59348;52.158;5.588;2022-07-23T10:57:05;3.00;;;1.80;;
22250;SDS011;59348;52.158;5.588;2022-07-23T11:02:23;2.92;;;2.00;;
22250;SDS011;59348;52.158;5.588;2022-07-23T11:04:51;5.10;;;2.22;;
22250;SDS011;59348;52.158;5.588;2022-07-23T11:07:18;3.88;;;1.83;;
22250;SDS011;59348;52.158;5.588;2022-07-23T11:09:46;2.28;;;2.00;;
22250;SDS011;59348;52.158;5.588;2022-07-23T11:14:57;3.72;;;2.00;;
22250;SDS011;59348;52.158;5.588;2022-07-23T11:17:26;3.15;;;2.10;;
22250;SDS011;59348;52.158;5.588;2022-07-23T11:22:37;5.00;;;2.03;;
22250;SDS011;59348;52.158;5.588;2022-07-23T11:25:04;3.85;;;2.40;;
22250;SDS011;59348;52.158;5.588;2022-07-23T11:27:39;3.78;;;2.03;;
22250;SDS011;59348;52.158;5.588;2022-07-23T11:30:07;3.08;;;2.05;;
22250;SDS011;59348;52.158;5.588;2022-07-23T11:32:38;3.70;;;1.85;;
22250;SDS011;59348;52.158;5.588;2022-07-23T11:37:49;2.72;;;1.92;;
22250;SDS011;59348;52.158;5.588;2022-07-23T11:40:23;3.88;;;2.00;;
22250;SDS011;59348;52.158;5.588;2022-07-23T11:42:51;6.18;;;2.20;;
22250;SDS011;59348;52.158;5.588;2022-07-23T11:45:19;4.88;;;2.20;;
22250;SDS011;59348;52.158;5.588;2022-07-23T11:47:48;3.83;;;1.90;;
22250;SDS011;59348;52.158;5.588;2022-07-23T11:50:15;2.78;;;2.10;;
22250;SDS011;59348;52.158;5.588;2022-07-23T11:52:42;3.55;;;2.10;;
22250;SDS011;59348;52.158;5.588;2022-07-23T11:55:10;2.65;;;2.00;;
22250;SDS011;59348;52.158;5.588;2022-07-23T11:57:41;3.90;;;2.20;;
22250;SDS011;59348;52.158;5.588;2022-07-23T12:00:09;3.97;;;2.10;;
22250;SDS011;59348;52.158;5.588;2022-07-23T12:02:37;2.30;;;2.10;;
22250;SDS011;59348;52.158;5.588;2022-07-23T12:05:06;4.30;;;1.98;;
22250;SDS011;59348;52.158;5.588;2022-07-23T12:07:35;2.58;;;2.28;;
22250;SDS011;59348;52.158;5.588;2022-07-23T12:10:03;2.97;;;2.08;;
22250;SDS011;59348;52.158;5.588;2022-07-23T12:12:38;3.97;;;2.28;;
22250;SDS011;59348;52.158;5.588;2022-07-23T12:15:06;3.05;;;1.92;;
22250;SDS011;59348;52.158;5.588;2022-07-23T12:17:35;3.13;;;2.08;;
22250;SDS011;59348;52.158;5.588;2022-07-23T12:20:03;2.92;;;2.22;;
22250;SDS011;59348;52.158;5.588;2022-07-23T12:22:35;4.13;;;2.05;;
22250;SDS011;59348;52.158;5.588;2022-07-23T12:25:04;2.75;;;1.80;;
22250;SDS011;59348;52.158;5.588;2022-07-23T12:27:32;3.35;;;2.03;;
22250;SDS011;59348;52.158;5.588;2022-07-23T12:30:14;2.65;;;2.10;;
22250;SDS011;59348;52.158;5.588;2022-07-23T12:32:42;2.38;;;2.13;;
22250;SDS011;59348;52.158;5.588;2022-07-23T12:35:10;2.53;;;2.22;;
22250;SDS011;59348;52.158;5.588;2022-07-23T12:37:40;7.55;;;2.50;;
22250;SDS011;59348;52.158;5.588;2022-07-23T12:42:51;5.22;;;2.60;;
22250;SDS011;59348;52.158;5.588;2022-07-23T12:45:18;3.28;;;2.70;;
22250;SDS011;59348;52.158;5.588;2022-07-23T12:47:54;5.00;;;2.70;;
22250;SDS011;59348;52.158;5.588;2022-07-23T12:53:05;4.18;;;2.50;;
22250;SDS011;59348;52.158;5.588;2022-07-23T12:55:33;3.83;;;2.70;;
22250;SDS011;59348;52.158;5.588;2022-07-23T12:58:04;6.68;;;2.53;;
22250;SDS011;59348;52.158;5.588;2022-07-23T13:00:31;2.85;;;2.42;;
22250;SDS011;59348;52.158;5.588;2022-07-23T13:02:59;3.63;;;2.55;;
22250;SDS011;59348;52.158;5.588;2022-07-23T13:05:26;5.07;;;2.67;;
22250;SDS011;59348;52.158;5.588;2022-07-23T13:07:53;4.95;;;2.55;;
22250;SDS011;59348;52.158;5.588;2022-07-23T13:10:22;6.05;;;2.70;;
22250;SDS011;59348;52.158;5.588;2022-07-23T13:12:49;2.65;;;2.42;;
22250;SDS011;59348;52.158;5.588;2022-07-23T13:15:16;4.43;;;2.58;;
22250;SDS011;59348;52.158;5.588;2022-07-23T13:17:44;5.18;;;2.30;;
22250;SDS011;59348;52.158;5.588;2022-07-23T13:20:13;2.60;;;2.17;;
22250;SDS011;59348;52.158;5.588;2022-07-23T13:22:40;5.57;;;2.67;;
22250;SDS011;59348;52.158;5.588;2022-07-23T13:25:08;2.80;;;2.35;;
22250;SDS011;59348;52.158;5.588;2022-07-23T13:27:36;3.65;;;2.67;;
22250;SDS011;59348;52.158;5.588;2022-07-23T13:30:04;4.22;;;2.60;;
22250;SDS011;59348;52.158;5.588;2022-07-23T13:32:32;2.90;;;2.60;;
22250;SDS011;59348;52.158;5.588;2022-07-23T13:34:59;4.65;;;2.63;;
22250;SDS011;59348;52.158;5.588;2022-07-23T13:37:26;3.05;;;2.67;;
22250;SDS011;59348;52.158;5.588;2022-07-23T13:39:54;3.72;;;2.60;;
22250;SDS011;59348;52.158;5.588;2022-07-23T13:42:21;4.32;;;2.53;;
22250;SDS011;59348;52.158;5.588;2022-07-23T13:44:49;3.25;;;2.70;;
22250;SDS011;59348;52.158;5.588;2022-07-23T13:47:17;4.75;;;2.67;;
22250;SDS011;59348;52.158;5.588;2022-07-23T13:49:44;3.17;;;2.80;;
22250;SDS011;59348;52.158;5.588;2022-07-23T13:52:11;3.75;;;2.50;;
22250;SDS011;59348;52.158;5.588;2022-07-23T13:54:38;3.90;;;2.60;;
22250;SDS011;59348;52.158;5.588;2022-07-23T13:57:06;4.50;;;2.70;;
22250;SDS011;59348;52.158;5.588;2022-07-23T13:59:34;4.40;;;2.90;;
22250;SDS011;59348;52.158;5.588;2022-07-23T14:02:02;4.07;;;3.00;;
22250;SDS011;59348;52.158;5.588;2022-07-23T14:04:31;3.38;;;2.63;;
22250;SDS011;59348;52.158;5.588;2022-07-23T14:06:58;5.90;;;2.72;;
22250;SDS011;59348;52.158;5.588;2022-07-23T14:09:25;4.18;;;2.70;;
22250;SDS011;59348;52.158;5.588;2022-07-23T14:11:54;3.50;;;2.70;;
22250;SDS011;59348;52.158;5.588;2022-07-23T14:14:21;5.72;;;2.80;;
22250;SDS011;59348;52.158;5.588;2022-07-23T14:16:49;6.18;;;2.88;;
22250;SDS011;59348;52.158;5.588;2022-07-23T14:19:17;3.97;;;3.08;;
22250;SDS011;59348;52.158;5.588;2022-07-23T14:21:45;3.72;;;2.80;;
22250;SDS011;59348;52.158;5.588;2022-07-23T14:24:13;4.30;;;2.88;;
22250;SDS011;59348;52.158;5.588;2022-07-23T14:26:40;5.25;;;3.13;;
22250;SDS011;59348;52.158;5.588;2022-07-23T14:29:08;4.55;;;2.88;;
22250;SDS011;59348;52.158;5.588;2022-07-23T14:31:35;3.20;;;2.90;;
22250;SDS011;59348;52.158;5.588;2022-07-23T14:34:02;4.93;;;2.90;;
22250;SDS011;59348;52.158;5.588;2022-07-23T14:36:31;4.72;;;2.70;;
22250;SDS011;59348;52.158;5.588;2022-07-23T14:38:58;4.72;;;2.80;;
22250;SDS011;59348;52.158;5.588;2022-07-23T14:41:26;4.38;;;2.83;;
22250;SDS011;59348;52.158;5.588;2022-07-23T14:43:53;3.92;;;2.80;;
22250;SDS011;59348;52.158;5.588;2022-07-23T14:46:21;4.20;;;2.78;;
22250;SDS011;59348;52.158;5.588;2022-07-23T14:48:48;3.00;;;2.60;;
22250;SDS011;59348;52.158;5.588;2022-07-23T14:51:15;4.07;;;2.97;;
22250;SDS011;59348;52.158;5.588;2022-07-23T14:53:44;3.05;;;2.83;;
22250;SDS011;59348;52.158;5.588;2022-07-23T14:56:11;3.72;;;2.72;;
22250;SDS011;59348;52.158;5.588;2022-07-23T14:58:39;5.57;;;3.00;;
22250;SDS011;59348;52.158;5.588;2022-07-23T15:01:06;5.72;;;3.20;;
22250;SDS011;59348;52.158;5.588;2022-07-23T15:03:34;3.53;;;2.90;;
22250;SDS011;59348;52.158;5.588;2022-07-23T15:06:01;5.70;;;3.08;;
22250;SDS011;59348;52.158;5.588;2022-07-23T15:08:28;4.50;;;3.22;;
22250;SDS011;59348;52.158;5.588;2022-07-23T15:10:57;5.78;;;3.10;;
22250;SDS011;59348;52.158;5.588;2022-07-23T15:13:24;5.88;;;3.30;;
22250;SDS011;59348;52.158;5.588;2022-07-23T15:15:51;4.10;;;3.35;;
22250;SDS011;59348;52.158;5.588;2022-07-23T15:18:19;4.63;;;3.08;;
22250;SDS011;59348;52.158;5.588;2022-07-23T15:20:46;4.32;;;3.40;;